NCAR-RAP Real-Time Weather Data

Output produced by METARs form (16 August 2018  19:23 UTC)
found at http://weather.rap.ucar.edu/surface/
 
KDCA 161852Z 17011KT 10SM SCT055 BKN250 32/21 A3009 RMK AO2 SLPNO T03220211
KDCA 161752Z 17010KT 10SM SCT050 BKN250 32/21 A3010 RMK AO2 SLPNO 10322 20256 T03170206 58005
KDCA 161652Z 17007KT 10SM FEW040 OVC250 31/22 A3010 RMK AO2 SLPNO T03110222
KDCA 161552Z 17007KT 10SM FEW035 OVC250 30/21 A3011 RMK AO2 SLPNO T03000206
KDCA 161452Z 17005KT 10SM FEW140 OVC250 29/23 A3011 RMK AO2 SLPNO T02890228
KDCA 161414Z 16005KT 10SM FEW140 OVC250 28/23 A3012 RMK AO2 T02830228
KDCA 161352Z 00000KT 10SM SCT130 OVC250 28/21 A3011 RMK AO2 SLP196 T02770205
KDCA 161252Z 19004KT 10SM SCT120 OVC250 27/21 A3010 RMK AO2 SLP193 T02660205
KDCA 161152Z 00000KT 10SM SCT120 OVC250 26/20 A3009 RMK AO2 SLP190 T02560200 10256 20227 52010
KDCA 161052Z 00000KT 10SM FEW100 BKN250 24/21 A3008 RMK SLP186 T02390206
KDCA 160952Z 00000KT 10SM FEW100 BKN250 23/21 A3007 RMK SLP183 T02270206
KDCA 160852Z 00000KT 10SM FEW250 23/21 A3006 RMK SLP179 T02270206 55000
KDCA 160752Z 00000KT 10SM FEW250 23/21 A3005 RMK SLP176 T02270206
KDCA 160652Z 00000KT 10SM FEW250 24/21 A3006 RMK SLP179 T02390206
KDCA 160552Z 21003KT 10SM BKN250 24/21 A3006 RMK SLP179 T02440211
KDCA 160452Z COR 20004KT 10SM BKN250 26/21 A3005 RMK SLP176 T02560206 403330222
KDCA 160352Z 00000KT 10SM BKN250 27/19 A3005 RMK SLP176 T02660206
KDCA 160252Z 25006KT 10SM BKN250 28/19
KDCA 160152Z 27004KT 10SM BKN250 29/19
KDCA 160052Z 27005KT 10SM SCT250 29/19 A3003 RMK AO2 SLP169 T02940189
KDCA 152352Z 30004KT 10SM FEW060 SCT250 31/18 A3002 RMK AO2 SLP165 T03060183 10333 20300 53004
KDCA 152252Z 33009KT 10SM FEW060 31/18 A3001 RMK AO2 SLP161 T03110183
KDCA 152152Z 34012KT 10SM FEW060 31/18 A3001 RMK AO2 SLP162 T03110183
KDCA 152052Z 33009KT 10SM SCT060 32/18 A3001 RMK AO2 SLP162 T03170183 55003
KDCA 151952Z 30010KT 10SM BKN060 32/17 A3000 RMK AO2 SLP160 T03220172
KDCA 151852Z 27010KT 10SM BKN060 33/17 A3001 RMK AO2 SLP162 T03280167
KDCA 151752Z 28009KT 10SM SCT055 SCT250 32/18 A3002 RMK AO2 SLP165 T03220178 10322 20244 58009
KDCA 151652Z VRB06KT 10SM FEW045 FEW250 32/19 A3002 RMK AO2 SLP167 T03170194
KDCA 151552Z VRB04KT 10SM FEW035 SCT250 31/19 A3004 RMK AO2 SLP172 T03060194
KDCA 151452Z VRB06KT 10SM SCT250 29/19 A3004 RMK AO2 SLP173 T02940194 51014
KDCA 151352Z 31008KT 10SM SCT250 28/19 A3003 RMK AO2 SLP170 T02830189
KDCA 151252Z 31008KT 10SM SCT250 27/18 A3002 RMK AO2 SLP165 T02670183
KDCA 151152Z 26004KT 10SM SCT250 24/19 A3000 RMK AO2 SLP160 T02440189 10244 20222 53012
KDCA 151052Z 00000KT 10SM SCT250 23/18 A3000 RMK AO2 SLP157 T02280183
KDCA 150952Z 21003KT 10SM CLR 23/18 A2998 RMK AO2 SLP151 T02280183
KDCA 150852Z 00000KT 10SM FEW110 23/18 A2997 RMK AO2 SLP149 T02330183 57000
KDCA 150752Z 18004KT 10SM FEW110 23/19 A2997 RMK AO2 SLP148 T02280189
KDCA 150652Z 19005KT 10SM SCT130 23/19 A2997 RMK AO2 SLP149 T02330189
KDCA 150552Z 21004KT 10SM BKN110 OVC140 24/19 A2997 RMK AO2 SLP149 T02390194 10272 20239 58001
KDCA 150452Z 23005KT 10SM OVC100 24/19 A2998 RMK AO2 SLP153 T02440194 403060206
KDCA 150352Z 21006KT 10SM BKN110 BKN150 24/19 A2999 RMK AO2 SLP153 T02440194
KDCA 150252Z 23005KT 10SM FEW080 BKN170 BKN250 26/18 A2997 RMK AO2 SLP150 T02560183 51013
KDCA 150152Z 00000KT 10SM FEW070 BKN160 BKN250 26/18 A2997 RMK AO2 SLP148 T02610178
KDCA 150143Z VRB03KT 10SM FEW070 BKN160 BKN250 26/18 A2997 RMK AO2 T02610178
KDCA 150139Z VRB03KT 10SM FEW070 BKN160 BKN250 26/18 A2997 RMK AO2 T02610178
KDCA 150119Z COR 34005KT 10SM VCTS FEW070 BKNO160 BKN250 26/18 A2996 RMK AO2 LTG DSNT NE AND W T02610183
KDCA 150052Z COR 30008KT 10SM FEW065 BKN140 BKN250 26/18 A2995 RMK AO2 LTG DSNT N AND NW SLP141 T02610183
KDCA 142352Z 30011KT 10SM FEW060 FEW075 SCT110 BKN250 27/18 A2993 RMK AO2 SLP136 CB DSNT E-S MOV SE T02720178 10306 20272 51014
KDCA 142252Z 31009KT 10SM FEW055 SCT075 BKN110 BKN250 28/18 A2993 RMK AO2 SLP134 CB DSNT SE-S MOV SE T02780183
KDCA 142152Z 28010KT 10SM BKN055 BKN075 BKN110 BKN250 29/17 A2991 RMK AO2 SLP129 T02890167
KDCA 142052Z 29010KT 10SM FEW050 SCT250 30/17 A2989 RMK AO2 SLP123 CB DSNT W-NE MOV SE T03000167 56014
KDCA 141952Z 28014G18KT 10SM SCT050 BKN250 30/17 A2990 RMK AO2 SLP125 T03000167
KDCA 141852Z 27007KT 10SM SCT050 SCT080 BKN250 29/17 A2992 RMK AO2 SLP132 T02940172
KDCA 141752Z 29008G17KT 10SM SCT050 SCT080 BKN250 29/17 A2994 RMK AO2 SLP137 T02940172 10294 20228 58009
KDCA 141652Z 33009G14KT 10SM FEW045 FEW110 FEW140 SCT250 29/17 A2995 RMK AO2 SLP141 T02890172
KDCA 141552Z 27007KT 10SM FEW035 FEW075 SCT110 BKN250 27/17 A2996 RMK AO2 SLP146 T02720167
KDCA 141452Z 29011G16KT 10SM FEW075 FEW140 SCT250 27/17 A2996 RMK AO2 SLP146 T02670167 50002
KDCA 141352Z 29012KT 10SM FEW080 SCT140 SCT250 26/16 A2997 RMK AO2 SLP147 T02560161
KDCA 141252Z 27007KT 10SM FEW080 FEW140 BKN250 24/16 A2997 RMK AO2 SLP147 T02390161
KDCA 141152Z 25004KT 10SM FEW090 FEW140 BKN250 23/16 A2996 RMK AO2 SLP144 T02280161 10228 20206 51014
KDCA 141052Z 29004KT 10SM FEW170 21/16 A2995 RMK AO2 SLP141 T02110161
KDCA 140952Z 29005KT 10SM FEW120 21/17 A2993 RMK AO2 SLP135 T02110167
KDCA 140852Z 25005KT 10SM FEW120 21/17 A2992 RMK AO2 SLP130 T02110172 55006
KDCA 140752Z 22004KT 10SM FEW160 21/18 A2992 RMK AO2 SLP130 T02110178